Flight Track Log - Related Links

Times and Time Zones

All times are in EDT time to prevent confusion due to time zone crossing. See the SAS4169 flight status page for this flight to view local times or setup timezone preferences in your user account.

Time Position Orientation Groundspeed Altitude Reporting Facility
EDT Latitude Longitude Course Direction KTS MPH feet Rate Location/Type
Thu 10:03:02 AM 63.3828 10.7845 223° Southwest  Level Estimated
Thu 10:04:02 AM 63.3103 10.6349 223° Southwest  Level Estimated
Thu 10:05:02 AM 63.2377 10.4860 223° Southwest  Level Estimated
Thu 10:06:02 AM 63.1648 10.3379 222° Southwest  Level Estimated
Thu 10:07:02 AM 63.0919 10.1905 222° Southwest  Level Estimated
Thu 10:08:02 AM 63.0188 10.0439 222° Southwest  Level Estimated
Thu 10:09:02 AM 62.9455 9.8980 222° Southwest  Level Estimated
Thu 10:10:02 AM 62.8721 9.7529 222° Southwest  Level Estimated
Thu 10:11:02 AM 62.7985 9.6084 222° Southwest  Level Estimated
Thu 10:12:02 AM 62.7248 9.4647 222° Southwest  Level Estimated
Thu 10:13:02 AM 62.6510 9.3217 222° Southwest  Level Estimated
Thu 10:14:02 AM 62.5770 9.1794 221° Southwest  Level Estimated
Thu 10:15:02 AM 62.5028 9.0378 221° Southwest  Level Estimated
Thu 10:16:02 AM 62.4285 8.8969 221° Southwest  Level Estimated
Thu 10:17:02 AM 62.3541 8.7568 221° Southwest  Level Estimated
Thu 10:18:02 AM 62.2795 8.6173 221° Southwest  Level Estimated
Thu 10:19:02 AM 62.2048 8.4785 221° Southwest  Level Estimated
Thu 10:20:02 AM 62.1300 8.3404 221° Southwest  Level Estimated
Thu 10:21:02 AM 62.0550 8.2029 221° Southwest  Level Estimated
Thu 10:22:02 AM 61.9799 8.0662 220° Southwest  Level Estimated
Thu 10:23:02 AM 61.9046 7.9301 220° Southwest  Level Estimated
Thu 10:24:02 AM 61.8292 7.7947 220° Southwest  Level Estimated
Thu 10:25:02 AM 61.7537 7.6600 220° Southwest  Level Estimated
Thu 10:26:02 AM 61.6780 7.5259 220° Southwest  Level Estimated
Thu 10:27:02 AM 61.6022 7.3924 220° Southwest  Level Estimated
Thu 10:28:02 AM 61.5263 7.2597 220° Southwest  Level Estimated
Thu 10:29:02 AM 61.4503 7.1275 220° Southwest  Level Estimated
Thu 10:30:02 AM 61.3741 6.9960 219° Southwest  Level Estimated
Thu 10:31:02 AM 61.2978 6.8652 219° Southwest  Level Estimated
Thu 10:32:02 AM 61.2214 6.7350 219° Southwest  Level Estimated
Thu 10:33:02 AM 61.1449 6.6054 219° Southwest  Level Estimated
Thu 10:34:02 AM 61.0682 6.4765 219° Southwest  Level Estimated
Thu 10:35:02 AM 60.9914 6.3481 219° Southwest  Level Estimated
Thu 10:36:02 AM 60.8991 6.1950 219° Southwest  Level Estimated
Thu 10:37:02 AM 60.8066 6.0427 219° Southwest  Level Estimated
Thu 10:38:02 AM 60.7140 5.8913 219° Southwest  Level Estimated
Thu 10:39:02 AM 60.6211 5.7407 218° Southwest  Level Estimated
Thu 10:40:02 AM 60.5281 5.5910 218° Southwest  Level Estimated
Thu 10:41:02 AM 60.4350 5.4422 218° Southwest  Level Estimated
Thu 10:42:02 AM 60.3417 5.2942 218° Southwest  Level Estimated
Thu 10:43:02 AM 60.2482 5.1471 38° Northeast  Level Estimated
Thu 10:44:02 AM 60.3417 5.2942 218° Southwest  Level Estimated
Thu 10:45:02 AM 60.2482 5.1471 38° Northeast  Level Estimated
Thu 10:46:02 AM 60.3417 5.2942 218° Southwest  Level Estimated
Thu 10:47:02 AM 60.2482 5.1471 38° Northeast  Level Estimated
Thu 10:48:02 AM 60.3417 5.2942 218° Southwest  Level Estimated
Thu 10:49:02 AM 60.2482 5.1471 38° Northeast  Level Estimated
Thu 10:50:02 AM 60.3417 5.2942 218° Southwest  Level Estimated
Thu 10:51:02 AM 60.2482 5.1471 218° Southwest  Level Estimated

Login

Don't have an account? Register now (free) for customized features, flight alerts, and more!